createdAt,value
2022-08-09T00:02:42.796Z,6.43
2022-08-09T00:08:57.059Z,6.82
2022-08-09T00:15:06.527Z,6.97
2022-08-09T00:21:10.363Z,7.25
2022-08-09T00:27:18.127Z,7.18
2022-08-09T00:33:32.607Z,8.23
2022-08-09T00:40:12.392Z,7.32
2022-08-09T00:46:10.014Z,8.00
2022-08-09T00:52:17.727Z,8.52
2022-08-09T00:58:22.190Z,7.97
2022-08-09T01:04:35.988Z,8.45
2022-08-09T01:10:43.554Z,9.15
2022-08-09T01:16:50.119Z,9.32
2022-08-09T01:24:00.790Z,8.90
2022-08-09T01:29:55.247Z,9.25
2022-08-09T01:36:03.380Z,9.50
2022-08-09T01:42:11.076Z,9.48
2022-08-09T01:48:16.643Z,9.90
2022-08-09T01:54:21.798Z,10.20
2022-08-09T02:00:35.394Z,10.77
2022-08-09T02:06:59.275Z,10.90
2022-08-09T02:13:07.986Z,10.35
2022-08-09T02:19:13.121Z,10.57
2022-08-09T02:25:20.403Z,10.43
2022-08-09T02:31:26.064Z,10.63
2022-08-09T02:37:33.015Z,10.90
2022-08-09T02:43:55.018Z,10.80
2022-08-09T02:50:01.954Z,11.10
2022-08-09T02:56:06.289Z,12.40
2022-08-09T03:02:17.067Z,11.20
2022-08-09T03:08:20.985Z,10.70
2022-08-09T03:14:29.292Z,11.57
2022-08-09T03:20:34.496Z,10.68
2022-08-09T03:26:45.083Z,11.50
2022-08-09T03:32:51.129Z,11.90
2022-08-09T03:38:56.561Z,11.32
2022-08-09T03:44:59.968Z,10.52
2022-08-09T03:51:07.185Z,11.05
2022-08-09T03:57:32.487Z,12.02
2022-08-09T04:04:01.323Z,10.63
2022-08-09T04:10:05.935Z,11.02
2022-08-09T04:16:19.537Z,11.20
2022-08-09T04:22:24.760Z,13.20
2022-08-09T04:28:36.183Z,13.50
2022-08-09T04:34:47.714Z,11.88
2022-08-09T04:40:58.246Z,10.82
2022-08-09T04:47:04.295Z,10.10
2022-08-09T04:53:13.807Z,10.52
2022-08-09T04:59:17.348Z,9.73
2022-08-09T05:05:31.948Z,10.70
2022-08-09T05:11:49.344Z,10.07
2022-08-09T05:18:42.487Z,12.05
2022-08-09T05:24:16.725Z,13.30
2022-08-09T05:30:21.449Z,10.65
2022-08-09T05:36:28.980Z,10.32
2022-08-09T05:42:32.676Z,9.40
2022-08-09T05:48:38.313Z,8.25
2022-08-09T05:54:42.190Z,8.27
2022-08-09T06:00:45.578Z,7.35
2022-08-09T06:06:51.820Z,7.47
2022-08-09T06:13:03.005Z,7.50
2022-08-09T06:19:14.820Z,6.90
2022-08-09T06:25:21.259Z,6.47
2022-08-09T06:31:30.443Z,6.30
2022-08-09T06:37:53.321Z,6.18
2022-08-09T06:44:00.573Z,6.43
2022-08-09T06:50:14.442Z,6.47
2022-08-09T06:56:30.927Z,6.80
2022-08-09T07:02:36.830Z,5.97
2022-08-09T07:08:42.287Z,6.15
2022-08-09T07:14:51.502Z,5.60
2022-08-09T07:20:58.284Z,4.93
2022-08-09T07:27:02.440Z,4.93
2022-08-09T07:33:12.521Z,4.72
2022-08-09T07:39:40.398Z,5.00
2022-08-09T07:45:44.789Z,4.38
2022-08-09T07:52:05.358Z,4.00
2022-08-09T07:58:14.148Z,4.00
2022-08-09T08:04:17.791Z,3.60
2022-08-09T08:10:21.195Z,3.42
2022-08-09T08:16:32.519Z,3.00
2022-08-09T08:22:37.874Z,3.00
2022-08-09T08:28:41.726Z,2.40
2022-08-09T08:34:46.684Z,2.58
2022-08-09T08:40:56.690Z,2.10
2022-08-09T08:47:04.391Z,2.20
2022-08-09T08:53:15.834Z,2.20
2022-08-09T08:59:28.072Z,2.00
2022-08-09T09:05:58.655Z,1.80
2022-08-09T09:12:16.675Z,1.95
2022-08-09T09:18:20.776Z,2.03
2022-08-09T09:24:29.496Z,2.17
2022-08-09T09:30:41.165Z,1.88
2022-08-09T09:36:53.175Z,1.95
2022-08-09T09:42:58.692Z,1.60
2022-08-09T09:49:06.371Z,1.63
2022-08-09T09:55:28.708Z,2.13
2022-08-09T10:01:38.125Z,1.75
2022-08-09T10:08:01.083Z,2.00
2022-08-09T10:14:07.082Z,1.40
2022-08-09T10:20:27.606Z,1.30
2022-08-09T10:26:37.623Z,1.52
2022-08-09T10:32:42.753Z,1.67
2022-08-09T10:38:57.038Z,1.33
2022-08-09T10:45:10.672Z,1.33
2022-08-09T10:51:17.559Z,1.30
2022-08-09T10:57:23.383Z,1.30
2022-08-09T11:03:47.169Z,1.20
2022-08-09T11:09:53.410Z,1.20
2022-08-09T11:16:14.714Z,1.20
2022-08-09T11:22:57.358Z,1.10
2022-08-09T11:29:03.428Z,1.30
2022-08-09T11:35:08.659Z,1.20
2022-08-09T11:41:37.538Z,1.10
2022-08-09T11:47:47.861Z,1.20
2022-08-09T11:54:00.573Z,0.95
2022-08-09T12:00:15.854Z,0.90
2022-08-09T12:06:24.869Z,1.10
2022-08-09T12:12:46.249Z,1.10
2022-08-09T12:18:53.918Z,1.15
2022-08-09T12:31:30.998Z,1.20
2022-08-09T12:37:53.933Z,1.40
2022-08-09T12:44:05.746Z,1.20
2022-08-09T12:50:19.860Z,1.27
2022-08-09T12:56:43.788Z,1.15
2022-08-09T13:02:54.072Z,1.10
2022-08-09T13:09:06.280Z,2.72
2022-08-09T13:15:11.249Z,3.35
2022-08-09T13:22:37.824Z,2.92
2022-08-09T13:27:54.724Z,3.38
2022-08-09T13:33:58.948Z,3.20
2022-08-09T13:41:46.130Z,3.50
2022-08-09T13:47:16.190Z,3.13
2022-08-09T13:52:50.472Z,5.63
2022-08-09T13:58:54.542Z,3.00
2022-08-09T14:05:00.367Z,2.97
2022-08-09T14:11:03.990Z,3.50
2022-08-09T14:17:22.603Z,2.75
2022-08-09T14:23:54.140Z,3.45
2022-08-09T14:30:35.834Z,2.97
2022-08-09T14:36:20.725Z,2.58
2022-08-09T14:42:30.898Z,3.33
2022-08-09T14:48:36.060Z,2.75
2022-08-09T14:54:39.682Z,2.95
2022-08-09T15:00:48.008Z,2.95
2022-08-09T15:06:54.152Z,4.03
2022-08-09T15:12:58.660Z,3.80
2022-08-09T15:19:15.969Z,3.35
2022-08-09T15:25:21.970Z,3.90
2022-08-09T15:31:42.780Z,3.50
2022-08-09T15:37:57.233Z,3.58
2022-08-09T15:44:14.201Z,3.42
2022-08-09T15:50:23.106Z,2.80
2022-08-09T15:56:34.218Z,3.15
2022-08-09T16:02:37.616Z,2.92
2022-08-09T16:08:44.541Z,2.35
2022-08-09T16:14:54.560Z,2.50
2022-08-09T16:21:00.160Z,2.05
2022-08-09T16:27:05.126Z,2.28
2022-08-09T16:33:11.560Z,2.08
2022-08-09T16:39:15.539Z,2.50
2022-08-09T16:45:21.525Z,2.40
2022-08-09T16:51:26.744Z,2.15
2022-08-09T16:58:08.544Z,1.85
2022-08-09T17:03:54.830Z,2.50
2022-08-09T17:10:03.873Z,2.40
2022-08-09T17:16:07.997Z,2.28
2022-08-09T17:22:11.383Z,2.30
2022-08-09T17:28:16.229Z,2.05
2022-08-09T17:35:10.424Z,1.90
2022-08-09T17:40:47.254Z,1.90
2022-08-09T17:46:55.550Z,1.50
2022-08-09T17:52:59.491Z,1.83
2022-08-09T17:59:09.280Z,1.33
2022-08-09T18:05:16.661Z,1.35
2022-08-09T18:11:23.819Z,1.30
2022-08-09T18:18:03.365Z,1.38
2022-08-09T18:24:09.734Z,1.80
2022-08-09T18:30:39.573Z,1.40
2022-08-09T18:36:40.304Z,1.60
2022-08-09T18:42:51.361Z,1.48
2022-08-09T18:48:54.835Z,1.30
2022-08-09T18:55:05.457Z,1.30
2022-08-09T19:01:18.575Z,1.50
2022-08-09T19:07:22.620Z,1.80
2022-08-09T19:13:38.350Z,1.63
2022-08-09T19:19:51.149Z,1.30
2022-08-09T19:26:05.175Z,1.60
2022-08-09T19:32:09.327Z,1.85
2022-08-09T19:38:14.763Z,2.10
2022-08-09T19:44:20.080Z,1.90
2022-08-09T19:50:49.096Z,2.00
2022-08-09T19:56:50.744Z,2.00
2022-08-09T20:04:07.616Z,2.25
2022-08-09T20:09:43.791Z,2.03
2022-08-09T20:16:34.502Z,2.40
2022-08-09T20:22:09.854Z,2.35
2022-08-09T20:28:27.788Z,2.35
2022-08-09T20:34:39.267Z,2.80
2022-08-09T20:40:42.703Z,2.88
2022-08-09T20:46:52.581Z,2.60
2022-08-09T20:52:57.309Z,2.67
2022-08-09T20:59:00.709Z,3.00
2022-08-09T21:05:51.133Z,3.30
2022-08-09T21:18:23.980Z,3.65
2022-08-09T21:24:19.361Z,3.05
2022-08-09T21:30:33.440Z,3.85
2022-08-09T21:36:55.370Z,3.90
2022-08-09T21:42:59.426Z,3.33
2022-08-09T21:49:04.126Z,3.72
2022-08-09T21:55:11.316Z,4.13
2022-08-09T22:01:26.519Z,4.45
2022-08-09T22:07:52.973Z,3.78
2022-08-09T22:13:57.447Z,4.32
2022-08-09T22:20:02.474Z,4.30
2022-08-09T22:26:12.398Z,4.20
2022-08-09T22:32:30.195Z,4.38
2022-08-09T22:38:35.234Z,4.75
2022-08-09T22:44:45.628Z,4.78
2022-08-09T22:50:52.992Z,4.95
2022-08-09T22:56:58.699Z,4.63
2022-08-09T23:03:03.609Z,5.00
2022-08-09T23:09:16.239Z,5.07
2022-08-09T23:15:19.715Z,5.88
2022-08-09T23:21:31.307Z,5.43
2022-08-09T23:27:37.123Z,5.55
2022-08-09T23:34:00.466Z,5.60
2022-08-09T23:40:05.504Z,5.28
2022-08-09T23:46:09.021Z,5.45
2022-08-09T23:52:12.431Z,5.70
2022-08-09T23:58:25.750Z,6.00
